createdAt,value
2018-03-16T00:00:25.177Z,94.40
2018-03-16T00:02:57.083Z,94.40
2018-03-16T00:05:29.717Z,94.40
2018-03-16T00:08:01.607Z,93.90
2018-03-16T00:10:34.244Z,94.10
2018-03-16T00:13:06.141Z,93.50
2018-03-16T00:15:38.027Z,93.60
2018-03-16T00:18:09.974Z,93.80
2018-03-16T00:20:41.824Z,93.60
2018-03-16T00:23:13.716Z,93.80
2018-03-16T00:25:46.403Z,94.20
2018-03-16T00:28:18.285Z,94.00
2018-03-16T00:30:50.158Z,94.20
2018-03-16T00:33:22.052Z,94.10
2018-03-16T00:35:54.692Z,94.10
2018-03-16T00:38:26.578Z,94.30
2018-03-16T00:40:58.768Z,94.40
2018-03-16T00:43:30.667Z,94.30
2018-03-16T00:46:02.539Z,94.40
2018-03-16T00:48:34.445Z,94.80
2018-03-16T00:51:07.077Z,94.20
2018-03-16T00:53:38.970Z,93.90
2018-03-16T00:56:11.611Z,94.60
2018-03-16T00:58:44.275Z,94.60
2018-03-16T01:01:16.407Z,94.30
2018-03-16T01:03:48.575Z,94.30
2018-03-16T01:06:20.469Z,94.30
2018-03-16T01:08:52.599Z,93.80
2018-03-16T01:11:24.472Z,94.10
2018-03-16T01:13:56.627Z,94.30
2018-03-16T01:16:28.515Z,94.10
2018-03-16T01:19:00.396Z,94.70
2018-03-16T01:21:32.511Z,94.50
2018-03-16T01:24:04.400Z,94.60
2018-03-16T01:26:36.283Z,95.20
2018-03-16T01:29:08.164Z,95.20
2018-03-16T01:31:40.263Z,95.50
2018-03-16T01:34:12.147Z,94.90
2018-03-16T01:36:44.024Z,95.60
2018-03-16T01:39:15.916Z,95.60
2018-03-16T01:41:48.105Z,95.60
2018-03-16T01:44:19.996Z,94.70
2018-03-16T01:46:52.133Z,94.40
2018-03-16T01:49:24.037Z,94.70
2018-03-16T01:51:55.903Z,94.90
2018-03-16T01:54:27.791Z,94.70
2018-03-16T01:57:00.432Z,95.70
2018-03-16T01:59:32.318Z,95.80
2018-03-16T02:02:04.188Z,95.80
2018-03-16T02:04:36.848Z,95.70
2018-03-16T02:07:08.720Z,94.80
2018-03-16T02:09:40.618Z,94.70
2018-03-16T02:12:12.490Z,95.60
2018-03-16T02:14:44.384Z,94.90
2018-03-16T02:17:17.019Z,94.70
2018-03-16T02:19:49.174Z,95.30
2018-03-16T02:22:21.051Z,95.20
2018-03-16T02:24:53.202Z,95.60
2018-03-16T02:27:25.084Z,95.30
2018-03-16T02:29:56.959Z,95.40
2018-03-16T02:32:28.836Z,94.90
2018-03-16T02:35:00.737Z,95.50
2018-03-16T02:37:32.621Z,95.50
2018-03-16T02:40:04.518Z,95.90
2018-03-16T02:42:36.389Z,95.30
2018-03-16T02:45:08.273Z,95.30
2018-03-16T02:47:40.916Z,96.00
2018-03-16T02:50:12.800Z,95.20
2018-03-16T02:52:45.435Z,95.50
2018-03-16T02:55:17.561Z,94.90
2018-03-16T02:57:49.443Z,95.40
2018-03-16T03:00:21.320Z,95.70
2018-03-16T03:02:53.188Z,95.40
2018-03-16T03:05:25.072Z,95.80
2018-03-16T03:07:56.947Z,96.10
2018-03-16T03:10:29.607Z,96.10
2018-03-16T03:13:01.483Z,96.00
2018-03-16T03:15:34.129Z,96.10
2018-03-16T03:18:06.004Z,96.00
2018-03-16T03:20:37.897Z,96.60
2018-03-16T03:23:09.775Z,96.40
2018-03-16T03:25:41.668Z,96.60
2018-03-16T03:28:13.552Z,96.60
2018-03-16T03:30:45.432Z,96.70
2018-03-16T03:33:18.069Z,95.60
2018-03-16T03:35:49.956Z,96.70
2018-03-16T03:38:22.608Z,96.70
2018-03-16T03:40:54.502Z,96.60
2018-03-16T03:43:27.144Z,97.00
2018-03-16T03:45:59.040Z,96.80
2018-03-16T03:48:31.686Z,95.90
2018-03-16T03:51:03.575Z,96.10
2018-03-16T03:53:36.237Z,96.70
2018-03-16T03:56:08.115Z,96.90
2018-03-16T03:58:40.852Z,97.00
2018-03-16T04:01:13.458Z,97.00
2018-03-16T04:03:45.336Z,97.10
2018-03-16T04:06:18.003Z,97.00
2018-03-16T04:08:49.888Z,96.90
2018-03-16T04:11:21.777Z,97.30
2018-03-16T04:13:53.642Z,97.30
2018-03-16T04:16:25.527Z,97.50
2018-03-16T04:18:57.390Z,97.00
2018-03-16T04:21:29.276Z,97.20
2018-03-16T04:24:01.168Z,96.90
2018-03-16T04:26:33.055Z,97.50
2018-03-16T04:29:04.932Z,97.00
2018-03-16T04:31:36.824Z,97.20
2018-03-16T04:34:08.709Z,97.10
2018-03-16T04:36:40.587Z,97.50
2018-03-16T04:39:12.713Z,97.20
2018-03-16T04:41:44.591Z,97.10
2018-03-16T04:44:16.471Z,97.10
2018-03-16T04:46:48.598Z,97.50
2018-03-16T04:49:20.471Z,97.40
2018-03-16T04:51:52.356Z,97.40
2018-03-16T04:54:24.236Z,97.30
2018-03-16T04:56:56.124Z,97.60
2018-03-16T04:59:28.779Z,97.20
2018-03-16T05:02:00.670Z,97.50
2018-03-16T05:04:33.316Z,97.80
2018-03-16T05:07:05.213Z,97.60
2018-03-16T05:09:37.851Z,97.90
2018-03-16T05:12:09.752Z,97.80
2018-03-16T05:14:41.631Z,97.70
2018-03-16T05:17:13.521Z,97.50
2018-03-16T05:19:45.612Z,97.60
2018-03-16T05:22:18.520Z,97.00
2018-03-16T05:24:50.403Z,96.80
2018-03-16T05:27:22.288Z,96.40
2018-03-16T05:29:54.408Z,97.40
2018-03-16T05:32:26.287Z,97.30
2018-03-16T05:34:58.171Z,97.40
2018-03-16T05:37:30.067Z,97.00
2018-03-16T05:40:01.951Z,97.10
2018-03-16T05:42:33.842Z,97.30
2018-03-16T05:45:05.716Z,96.70
2018-03-16T05:47:37.612Z,97.10
2018-03-16T05:50:10.252Z,97.00
2018-03-16T05:52:43.012Z,96.40
2018-03-16T05:55:14.890Z,97.40
2018-03-16T05:57:46.781Z,96.60
2018-03-16T06:00:19.690Z,97.00
2018-03-16T06:02:51.610Z,96.80
2018-03-16T06:05:23.485Z,96.50
2018-03-16T06:07:55.369Z,96.70
2018-03-16T06:10:27.563Z,98.40
2018-03-16T06:12:59.460Z,97.00
2018-03-16T06:15:31.334Z,97.10
2018-03-16T06:18:03.527Z,97.40
2018-03-16T06:20:35.404Z,97.40
2018-03-16T06:23:07.318Z,97.20
2018-03-16T06:25:39.188Z,97.00
2018-03-16T06:28:11.856Z,96.90
2018-03-16T06:30:43.724Z,96.80
2018-03-16T06:33:16.387Z,97.30
2018-03-16T06:35:48.267Z,97.20
2018-03-16T06:38:20.929Z,97.00
2018-03-16T06:40:52.803Z,97.00
2018-03-16T06:43:25.476Z,97.50
2018-03-16T06:45:58.133Z,97.40
2018-03-16T06:48:30.244Z,97.30
2018-03-16T06:51:02.139Z,97.60
2018-03-16T06:53:34.053Z,97.40
2018-03-16T06:56:06.696Z,93.20
2018-03-16T06:58:38.593Z,93.10
2018-03-16T07:01:11.236Z,92.90
2018-03-16T07:03:43.140Z,92.90
2018-03-16T07:06:15.026Z,92.90
2018-03-16T07:08:46.910Z,92.90
2018-03-16T07:11:18.794Z,92.80
2018-03-16T07:13:51.449Z,92.90
2018-03-16T07:16:23.327Z,92.60
2018-03-16T07:18:55.214Z,92.60
2018-03-16T07:21:27.096Z,92.60
2018-03-16T07:23:58.989Z,92.50
2018-03-16T07:26:30.866Z,92.40
2018-03-16T07:29:02.773Z,92.30
2018-03-16T07:31:34.650Z,92.30
2018-03-16T07:34:06.548Z,92.20
2018-03-16T07:36:38.424Z,92.20
2018-03-16T07:39:11.090Z,92.40
2018-03-16T07:41:43.284Z,92.40
2018-03-16T07:44:15.184Z,92.40
2018-03-16T07:46:47.067Z,92.50
2018-03-16T07:49:18.964Z,92.30
2018-03-16T07:51:50.845Z,92.30
2018-03-16T07:54:22.728Z,92.20
2018-03-16T07:56:54.614Z,92.10
2018-03-16T07:59:26.497Z,92.20
2018-03-16T08:01:59.129Z,92.10
2018-03-16T08:04:31.020Z,92.00
2018-03-16T08:07:03.004Z,92.20
2018-03-16T08:09:35.656Z,92.40
2018-03-16T08:12:07.851Z,92.40
2018-03-16T08:14:39.745Z,92.30
2018-03-16T08:17:11.671Z,92.40
2018-03-16T08:19:43.599Z,92.30
2018-03-16T08:22:15.475Z,92.20
2018-03-16T08:24:48.375Z,92.20
2018-03-16T08:27:20.273Z,92.20
2018-03-16T08:29:52.302Z,92.30
2018-03-16T08:32:24.223Z,92.30
2018-03-16T08:34:56.109Z,92.30
2018-03-16T08:37:28.798Z,91.80
2018-03-16T08:40:01.452Z,91.90
2018-03-16T08:42:33.340Z,91.90
2018-03-16T08:45:05.229Z,91.90
2018-03-16T08:47:37.109Z,91.90
2018-03-16T08:50:09.016Z,91.90
2018-03-16T08:52:41.668Z,91.70
2018-03-16T08:55:13.661Z,91.70
2018-03-16T08:57:46.308Z,91.60
2018-03-16T09:00:18.206Z,91.60
2018-03-16T09:02:50.145Z,91.60
2018-03-16T09:05:21.997Z,91.70
2018-03-16T09:07:53.897Z,91.70
2018-03-16T09:10:25.784Z,92.00
2018-03-16T09:12:57.676Z,92.00
2018-03-16T09:15:29.584Z,92.10
2018-03-16T09:18:01.760Z,92.30
2018-03-16T09:20:33.641Z,92.40
2018-03-16T09:23:05.519Z,92.40
2018-03-16T09:25:37.718Z,92.50
2018-03-16T09:28:09.666Z,92.60
2018-03-16T09:30:42.560Z,92.60
2018-03-16T09:33:14.767Z,92.60
2018-03-16T09:35:46.998Z,92.40
2018-03-16T09:38:19.165Z,92.60
2018-03-16T09:40:51.056Z,92.40
2018-03-16T09:43:23.189Z,92.40
2018-03-16T09:45:55.075Z,92.40
2018-03-16T09:48:27.163Z,92.40
2018-03-16T09:50:59.080Z,92.40
2018-03-16T09:53:30.965Z,92.50
2018-03-16T09:56:02.855Z,92.60
2018-03-16T09:58:34.736Z,92.70
2018-03-16T10:01:06.724Z,92.90
2018-03-16T10:03:38.603Z,92.90
2018-03-16T10:06:16.453Z,93.10
2018-03-16T10:08:48.331Z,93.30
2018-03-16T10:11:21.066Z,93.60
2018-03-16T10:13:52.961Z,93.30
2018-03-16T10:16:25.442Z,93.40
2018-03-16T10:18:58.099Z,93.70
2018-03-16T10:21:30.000Z,93.60
2018-03-16T10:24:01.881Z,93.60
2018-03-16T10:26:33.780Z,93.40
2018-03-16T10:29:05.877Z,93.30
2018-03-16T10:31:37.781Z,93.00
2018-03-16T10:34:09.663Z,92.90
2018-03-16T10:36:41.631Z,93.00
2018-03-16T10:39:13.512Z,93.00
2018-03-16T10:41:46.414Z,92.80
2018-03-16T10:44:18.300Z,92.80
2018-03-16T10:46:50.187Z,92.80
2018-03-16T10:49:22.065Z,92.80
2018-03-16T10:51:54.733Z,93.00
2018-03-16T10:54:26.610Z,93.00
2018-03-16T10:56:59.316Z,93.30
2018-03-16T10:59:31.200Z,93.30
2018-03-16T11:02:03.331Z,93.20
2018-03-16T11:04:35.232Z,93.30
2018-03-16T11:07:07.129Z,93.40
2018-03-16T11:09:39.774Z,93.40
2018-03-16T11:12:11.693Z,93.40
2018-03-16T11:14:43.857Z,93.50
2018-03-16T11:17:15.865Z,93.50
2018-03-16T11:19:48.451Z,93.50
2018-03-16T11:22:20.374Z,93.50
2018-03-16T11:24:52.290Z,93.50
2018-03-16T11:27:24.495Z,93.60
2018-03-16T11:29:56.381Z,93.50
2018-03-16T11:32:28.268Z,93.70
2018-03-16T11:35:00.171Z,93.50
2018-03-16T11:37:32.164Z,93.60
2018-03-16T11:40:04.786Z,93.60
2018-03-16T11:42:37.463Z,93.50
2018-03-16T11:45:09.650Z,93.50
2018-03-16T11:47:41.783Z,93.60
2018-03-16T11:50:13.709Z,93.70
2018-03-16T11:52:45.751Z,93.60
2018-03-16T11:55:17.628Z,93.70
2018-03-16T11:57:49.563Z,93.70
2018-03-16T12:00:22.289Z,93.60
2018-03-16T12:02:54.225Z,93.60
2018-03-16T12:05:26.117Z,93.50
2018-03-16T12:07:58.044Z,93.80
2018-03-16T12:10:29.953Z,94.00
2018-03-16T12:13:01.902Z,93.70
2018-03-16T12:15:34.682Z,93.40
2018-03-16T12:18:06.596Z,93.40
2018-03-16T12:20:38.484Z,93.80
2018-03-16T12:23:10.376Z,93.70
2018-03-16T12:25:42.288Z,93.60
2018-03-16T12:28:14.228Z,93.50
2018-03-16T12:30:46.859Z,94.10
2018-03-16T12:33:18.771Z,94.00
2018-03-16T12:35:51.445Z,94.40
2018-03-16T12:38:24.134Z,94.70
2018-03-16T12:40:56.020Z,94.70
2018-03-16T12:43:27.918Z,94.70
2018-03-16T12:46:00.119Z,94.40
2018-03-16T12:48:32.724Z,94.60
2018-03-16T12:51:04.640Z,94.80
2018-03-16T12:53:37.318Z,94.80
2018-03-16T12:56:10.323Z,94.60
2018-03-16T12:58:42.212Z,94.60
2018-03-16T13:01:14.139Z,94.60
2018-03-16T13:03:46.101Z,94.70
2018-03-16T13:06:18.750Z,94.90
2018-03-16T13:08:50.644Z,94.80
2018-03-16T13:11:22.583Z,94.70
2018-03-16T13:13:54.472Z,95.10
2018-03-16T13:16:27.100Z,95.10
2018-03-16T13:18:59.014Z,95.10
2018-03-16T13:21:30.900Z,94.90
2018-03-16T13:24:02.814Z,95.20
2018-03-16T13:26:35.457Z,95.00
2018-03-16T13:29:07.361Z,95.00
2018-03-16T13:31:39.245Z,95.00
2018-03-16T13:34:11.135Z,94.90
2018-03-16T13:36:43.027Z,95.30
2018-03-16T13:39:15.937Z,95.60
2018-03-16T13:41:47.824Z,95.60
2018-03-16T13:44:19.710Z,95.70
2018-03-16T13:46:51.710Z,96.00
2018-03-16T13:49:24.385Z,96.00
2018-03-16T13:51:56.264Z,96.00
2018-03-16T13:54:28.420Z,96.00
2018-03-16T13:57:00.296Z,96.00
2018-03-16T13:59:32.217Z,95.90
2018-03-16T14:02:04.868Z,96.70
2018-03-16T14:04:36.768Z,96.70
2018-03-16T14:07:09.404Z,97.10
2018-03-16T14:09:42.336Z,97.30
2018-03-16T14:12:14.241Z,97.30
2018-03-16T14:14:46.109Z,97.40
2018-03-16T14:17:18.154Z,97.20
2018-03-16T14:19:50.040Z,97.30
2018-03-16T14:22:21.948Z,97.50
2018-03-16T14:24:53.850Z,97.60
2018-03-16T14:27:26.000Z,97.60
2018-03-16T14:29:57.883Z,97.50
2018-03-16T14:32:30.044Z,97.50
2018-03-16T14:35:02.112Z,97.70
2018-03-16T14:37:34.009Z,97.70
2018-03-16T14:40:06.752Z,97.20
2018-03-16T14:42:38.640Z,97.20
2018-03-16T14:45:13.408Z,97.20
2018-03-16T14:47:45.292Z,97.20
2018-03-16T14:50:17.182Z,97.50
2018-03-16T14:52:49.060Z,97.00
2018-03-16T14:55:21.819Z,97.30
2018-03-16T14:57:53.693Z,97.30
2018-03-16T15:00:26.352Z,97.20
2018-03-16T15:02:58.240Z,97.20
2018-03-16T15:05:30.893Z,97.60
2018-03-16T15:08:02.765Z,97.60
2018-03-16T15:10:35.462Z,97.60
2018-03-16T15:13:07.356Z,97.50
2018-03-16T15:15:39.295Z,97.50
2018-03-16T15:18:11.195Z,97.30
2018-03-16T15:20:43.107Z,96.90
2018-03-16T15:23:15.008Z,97.20
2018-03-16T15:25:46.902Z,96.80
2018-03-16T15:28:18.812Z,96.70
2018-03-16T15:30:50.715Z,96.60
2018-03-16T15:33:22.692Z,96.80
2018-03-16T15:35:55.430Z,97.10
2018-03-16T15:38:27.281Z,97.00
2018-03-16T15:40:59.195Z,96.90
2018-03-16T15:43:31.867Z,96.40
2018-03-16T15:46:04.597Z,97.20
2018-03-16T15:48:36.476Z,96.90
2018-03-16T15:51:08.695Z,96.90
2018-03-16T15:53:40.608Z,96.70
2018-03-16T15:56:12.824Z,96.50
2018-03-16T15:58:44.717Z,96.60
2018-03-16T16:01:16.624Z,96.70
2018-03-16T16:03:49.301Z,97.00
2018-03-16T16:06:21.235Z,96.70
2018-03-16T16:08:53.145Z,96.70
2018-03-16T16:11:25.037Z,96.60
2018-03-16T16:13:56.916Z,96.50
2018-03-16T16:16:28.931Z,97.00
2018-03-16T16:19:00.812Z,96.40
2018-03-16T16:21:32.726Z,96.30
2018-03-16T16:24:04.917Z,96.40
2018-03-16T16:26:36.830Z,96.90
2018-03-16T16:29:08.723Z,96.30
2018-03-16T16:31:41.381Z,96.20
2018-03-16T16:34:13.367Z,96.20
2018-03-16T16:36:46.032Z,96.30
2018-03-16T16:39:17.942Z,96.30
2018-03-16T16:41:49.952Z,96.20
2018-03-16T16:44:22.482Z,96.10
2018-03-16T16:46:54.391Z,95.80
2018-03-16T16:49:26.275Z,96.00
2018-03-16T16:51:58.932Z,95.40
2018-03-16T16:54:31.577Z,95.60
2018-03-16T16:57:03.473Z,95.30
2018-03-16T16:59:36.345Z,95.20
2018-03-16T17:02:08.237Z,95.20
2018-03-16T17:04:40.412Z,95.30
2018-03-16T17:07:12.356Z,95.40
2018-03-16T17:09:45.017Z,95.20
2018-03-16T17:12:16.995Z,95.20
2018-03-16T17:14:48.887Z,95.40
2018-03-16T17:17:20.771Z,95.70
2018-03-16T17:19:52.679Z,95.70
2018-03-16T17:22:25.381Z,95.90
2018-03-16T17:24:57.379Z,95.90
2018-03-16T17:27:29.308Z,95.60
2018-03-16T17:30:01.940Z,95.10
2018-03-16T17:32:33.858Z,95.10
2018-03-16T17:35:05.746Z,95.30
2018-03-16T17:37:37.651Z,95.20
2018-03-16T17:40:09.545Z,95.00
2018-03-16T17:42:41.779Z,94.60
2018-03-16T17:45:13.661Z,94.90
2018-03-16T17:47:45.809Z,94.50
2018-03-16T17:50:17.747Z,94.40
2018-03-16T17:52:50.395Z,94.30
2018-03-16T17:55:22.323Z,94.30
2018-03-16T17:57:54.964Z,94.20
2018-03-16T18:00:27.613Z,94.50
2018-03-16T18:02:59.824Z,94.40
2018-03-16T18:05:31.737Z,94.50
2018-03-16T18:08:03.953Z,94.30
2018-03-16T18:10:35.863Z,94.30
2018-03-16T18:13:08.667Z,94.20
2018-03-16T18:15:40.536Z,94.20
2018-03-16T18:18:13.449Z,94.00
2018-03-16T18:20:45.332Z,93.90
2018-03-16T18:23:17.232Z,94.00
2018-03-16T18:25:49.137Z,93.80
2018-03-16T18:28:21.036Z,94.10
2018-03-16T18:30:52.916Z,94.00
2018-03-16T18:33:25.567Z,94.10
2018-03-16T18:35:57.451Z,94.40
2018-03-16T18:38:29.340Z,94.50
2018-03-16T18:41:01.254Z,94.30
2018-03-16T18:43:33.182Z,94.60
2018-03-16T18:46:05.120Z,94.30
2018-03-16T18:48:37.008Z,94.80
2018-03-16T18:51:09.153Z,94.80
2018-03-16T18:53:41.081Z,94.50
2018-03-16T18:56:12.968Z,94.50
2018-03-16T18:58:46.165Z,95.10
2018-03-16T19:01:18.324Z,95.10
2018-03-16T19:03:50.845Z,95.20
2018-03-16T19:06:22.746Z,95.20
2018-03-16T19:08:55.409Z,95.20
2018-03-16T19:11:27.287Z,95.20
2018-03-16T19:13:59.959Z,95.70
2018-03-16T19:16:32.609Z,95.70
2018-03-16T19:19:04.507Z,95.60
2018-03-16T19:21:37.444Z,95.50
2018-03-16T19:24:09.331Z,95.50
2018-03-16T19:26:41.208Z,95.70
2018-03-16T19:29:14.107Z,96.20
2018-03-16T19:31:46.280Z,96.20
2018-03-16T19:34:18.173Z,96.20
2018-03-16T19:36:50.048Z,96.00
2018-03-16T19:39:22.010Z,96.00
2018-03-16T19:41:53.900Z,95.30
2018-03-16T19:44:26.799Z,95.40
2018-03-16T19:46:58.683Z,95.40
2018-03-16T19:49:30.597Z,96.00
2018-03-16T19:52:03.243Z,95.50
2018-03-16T19:54:35.464Z,95.50
2018-03-16T19:57:07.339Z,95.50
2018-03-16T19:59:39.242Z,95.70
2018-03-16T20:02:11.132Z,95.60
2018-03-16T20:04:43.796Z,95.80
2018-03-16T20:07:15.680Z,95.80
2018-03-16T20:09:47.604Z,95.90
2018-03-16T20:12:19.472Z,95.60
2018-03-16T20:14:51.461Z,95.70
2018-03-16T20:17:24.122Z,95.60
2018-03-16T20:19:57.028Z,95.70
2018-03-16T20:22:28.925Z,95.70
2018-03-16T20:25:00.849Z,95.30
2018-03-16T20:27:32.724Z,95.40
2018-03-16T20:30:04.620Z,95.60
2018-03-16T20:32:36.499Z,95.50
2018-03-16T20:35:08.392Z,95.60
2018-03-16T20:37:41.275Z,95.50
2018-03-16T20:40:13.184Z,95.50
2018-03-16T20:42:45.063Z,95.70
2018-03-16T20:45:16.952Z,95.50
2018-03-16T20:47:48.839Z,95.20
2018-03-16T20:50:20.730Z,95.60
2018-03-16T20:52:52.608Z,95.60
2018-03-16T20:55:24.515Z,95.60
2018-03-16T20:57:56.400Z,95.70
2018-03-16T21:00:28.287Z,95.70
2018-03-16T21:03:01.297Z,95.80
2018-03-16T21:05:33.950Z,96.00
2018-03-16T21:08:05.851Z,96.00
2018-03-16T21:10:37.736Z,95.90
2018-03-16T21:13:09.636Z,95.90
2018-03-16T21:15:41.548Z,96.00
2018-03-16T21:18:13.425Z,95.90
2018-03-16T21:20:45.334Z,95.90
2018-03-16T21:23:17.965Z,95.80
2018-03-16T21:25:49.860Z,95.70
2018-03-16T21:28:22.492Z,96.00
2018-03-16T21:30:54.392Z,95.70
2018-03-16T21:33:26.259Z,95.70
2018-03-16T21:35:59.159Z,95.60
2018-03-16T21:38:31.029Z,95.60
2018-03-16T21:41:02.908Z,95.30
2018-03-16T21:43:35.048Z,95.00
2018-03-16T21:46:06.932Z,95.40
2018-03-16T21:48:39.072Z,95.30
2018-03-16T21:51:11.016Z,95.60
2018-03-16T21:53:43.660Z,94.80
2018-03-16T21:56:15.572Z,94.80
2018-03-16T21:58:47.449Z,94.60
2018-03-16T22:01:19.339Z,94.30
2018-03-16T22:03:51.229Z,94.40
2018-03-16T22:06:23.878Z,94.80
2018-03-16T22:08:56.531Z,94.90
2018-03-16T22:11:28.427Z,95.00
2018-03-16T22:14:00.532Z,94.90
2018-03-16T22:16:32.420Z,95.00
2018-03-16T22:19:04.299Z,94.80
2018-03-16T22:21:37.236Z,95.20
2018-03-16T22:24:09.122Z,95.10
2018-03-16T22:26:41.263Z,95.10
2018-03-16T22:29:13.135Z,95.50
2018-03-16T22:31:45.028Z,95.60
2018-03-16T22:34:16.908Z,95.90
2018-03-16T22:36:48.792Z,95.60
2018-03-16T22:39:21.434Z,95.80
2018-03-16T22:41:53.320Z,95.80
2018-03-16T22:44:25.976Z,96.00
2018-03-16T22:46:57.873Z,96.00
2018-03-16T22:49:30.508Z,95.70
2018-03-16T22:52:02.399Z,95.70
2018-03-16T22:54:35.031Z,96.30
2018-03-16T22:57:06.908Z,96.00
2018-03-16T22:59:38.824Z,95.80
2018-03-16T23:02:10.724Z,96.00
2018-03-16T23:04:42.613Z,95.90
2018-03-16T23:07:14.496Z,96.00
2018-03-16T23:09:46.659Z,95.70
2018-03-16T23:12:18.574Z,95.90
2018-03-16T23:14:50.440Z,95.70
2018-03-16T23:17:22.332Z,95.90
2018-03-16T23:19:55.224Z,96.00
2018-03-16T23:22:27.113Z,95.90
2018-03-16T23:24:58.988Z,96.00
2018-03-16T23:27:30.881Z,96.20
2018-03-16T23:30:03.521Z,96.20
2018-03-16T23:32:35.403Z,96.20
2018-03-16T23:35:07.280Z,96.00
2018-03-16T23:37:39.165Z,96.20
2018-03-16T23:40:11.040Z,96.00
2018-03-16T23:42:42.924Z,96.00
2018-03-16T23:45:14.788Z,96.10
2018-03-16T23:47:46.676Z,96.10
2018-03-16T23:50:18.873Z,96.10
2018-03-16T23:52:50.764Z,96.00
2018-03-16T23:55:22.634Z,96.10
2018-03-16T23:57:54.525Z,96.20
